Time;durP1;ratioP1;P1;durP2;ratioP2;P2;SDS_P1;SDS_P2;PMS_P1;PMS_P2;Temp;Humidity;BMP_temperature;BMP_pressure;BME280_temperature;BME280_humidity;BME280_pressure;Samples;Min_cycle;Max_cycle;Signal;HPM_P1;HPM_P2
2022/10/14 00:01:25;;;;;;;;;8.00;7.00;;;;;17.57;58.81;100994.47;5081840;27;45242;-50
2022/10/14 00:03:52;;;;;;;;;8.50;5.75;;;;;17.54;58.88;100988.34;5082182;27;45311;-50
2022/10/14 00:06:21;;;;;;;;;4.00;4.00;;;;;17.55;58.92;100992.72;5081866;27;45247;-51
2022/10/14 00:08:47;;;;;;;;;7.00;7.00;;;;;17.55;58.82;101000.69;5081871;27;45334;-52
2022/10/14 00:11:15;;;;;;;;;5.50;5.00;;;;;17.55;58.89;100992.72;5081971;27;45320;-53
2022/10/14 00:13:41;;;;;;;;;7.25;6.00;;;;;17.54;59.57;100990.13;5082175;27;46491;-51
2022/10/14 00:16:15;;;;;;;;;5.75;5.75;;;;;17.54;58.97;100988.34;5081804;27;45251;-49
2022/10/14 00:18:40;;;;;;;;;4.75;4.75;;;;;17.55;58.77;100990.06;5081992;27;45177;-49
2022/10/14 00:21:06;;;;;;;;;5.00;5.00;;;;;17.53;58.78;100983.97;5081834;27;48941;-51
2022/10/14 00:23:31;;;;;;;;;6.00;4.00;;;;;17.54;59.00;100992.78;5081568;27;45310;-52
2022/10/14 00:25:56;;;;;;;;;4.50;4.00;;;;;17.53;59.00;100981.31;5081835;27;45222;-50
2022/10/14 00:28:22;;;;;;;;;6.25;5.00;;;;;17.54;59.04;100982.16;5081988;27;45144;-49
2022/10/14 00:30:55;;;;;;;;;4.00;4.00;;;;;17.53;59.00;100981.31;5081915;27;45230;-49
2022/10/14 00:33:21;;;;;;;;;5.00;5.00;;;;;17.54;59.06;100979.50;5081733;27;45251;-50
2022/10/14 00:35:54;;;;;;;;;5.50;4.75;;;;;17.53;59.46;100965.38;5081637;27;45266;-50
2022/10/14 00:38:19;;;;;;;;;5.00;4.25;;;;;17.55;59.08;100975.94;5081263;27;45222;-48
2022/10/14 00:40:45;;;;;;;;;6.00;4.50;;;;;17.55;58.93;100966.16;5081622;27;45263;-51
2022/10/14 00:43:13;;;;;;;;;6.00;4.75;;;;;17.55;59.16;100958.19;5081448;27;45302;-49
2022/10/14 00:45:39;;;;;;;;;6.50;4.00;;;;;17.56;59.28;100961.72;5081648;27;45230;-52
2022/10/14 00:48:05;;;;;;;;;6.25;4.50;;;;;17.55;59.23;100955.53;5081359;27;45279;-54
2022/10/14 00:50:31;;;;;;;;;4.00;3.25;;;;;17.57;59.17;100951.94;5081558;27;45330;-50
2022/10/14 00:52:58;;;;;;;;;4.50;4.50;;;;;17.57;59.19;100947.50;5080936;28;45518;-52
2022/10/14 00:55:24;;;;;;;;;3.00;3.00;;;;;17.57;59.07;100951.94;5081617;27;45255;-52
2022/10/14 00:57:50;;;;;;;;;3.00;3.00;;;;;17.57;59.16;100944.84;5081261;27;45355;-52
2022/10/14 01:00:18;;;;;;;;;4.00;3.50;;;;;17.58;59.29;100943.06;5081449;27;45215;-48
2022/10/14 01:02:44;;;;;;;;;3.75;2.50;;;;;17.57;59.24;100933.34;5081124;28;46242;-51
2022/10/14 01:05:12;;;;;;;;;2.50;2.50;;;;;17.58;59.23;100935.09;5081311;28;45275;-49
2022/10/14 01:07:47;;;;;;;;;3.00;3.00;;;;;17.58;58.99;100940.41;5080693;28;45256;-49
2022/10/14 01:10:21;;;;;;;;;2.00;2.00;;;;;17.57;59.35;100938.66;5081237;28;45269;-52
2022/10/14 01:12:49;;;;;;;;;2.00;2.00;;;;;17.56;59.13;100937.81;5080082;27;45314;-52
2022/10/14 01:15:25;;;;;;;;;4.00;3.25;;;;;17.58;59.34;100937.75;5081045;27;45283;-49
2022/10/14 01:18:11;;;;;;;;;2.50;2.00;;;;;17.58;59.05;100935.94;5079763;28;45471;-51
2022/10/14 01:20:45;;;;;;;;;3.00;3.00;;;;;17.58;59.23;100929.78;5080872;27;45493;-49
2022/10/14 01:23:32;;;;;;;;;2.50;1.50;;;;;17.58;59.24;100930.63;5080658;27;45282;-49
2022/10/14 01:26:20;;;;;;;;;2.00;2.00;;;;;17.58;59.29;100917.34;5080852;27;45239;-50
2022/10/14 01:29:12;;;;;;;;;2.00;1.00;;;;;17.58;59.29;100917.34;5080845;27;45301;-53
2022/10/14 01:31:47;;;;;;;;;1.25;1.25;;;;;17.59;59.19;100903.13;5096607;27;45264;-50
2022/10/14 01:34:23;;;;;;;;;1.00;1.00;;;;;17.58;59.22;100909.38;5080916;28;45309;-49
2022/10/14 01:36:56;;;;;;;;;3.00;3.00;;;;;17.59;59.31;100899.63;5080364;28;45447;-48
2022/10/14 01:39:38;;;;;;;;;3.00;1.00;;;;;17.59;59.20;100897.81;5079495;28;45296;-48
2022/10/14 01:42:14;;;;;;;;;3.00;2.00;;;;;17.59;59.27;100895.16;5080522;28;45260;-51
2022/10/14 01:44:49;;;;;;;;;3.50;3.50;;;;;17.60;59.33;100898.72;5073403;28;46494;-48
2022/10/14 01:47:19;;;;;;;;;2.50;2.50;;;;;17.59;59.49;100899.63;5080522;27;45400;-48
2022/10/14 01:49:55;;;;;;;;;3.25;2.75;;;;;17.59;59.38;100891.66;5080586;27;45322;-49
2022/10/14 01:52:26;;;;;;;;;3.00;3.00;;;;;17.59;59.47;100894.31;5080376;28;45247;-53
2022/10/14 01:54:57;;;;;;;;;2.75;2.75;;;;;17.59;59.39;100892.50;5080217;28;46134;-53
2022/10/14 01:57:30;;;;;;;;;3.00;2.50;;;;;17.58;59.41;100890.78;5080358;27;45382;-50
2022/10/14 01:59:57;;;;;;;;;3.50;2.25;;;;;17.57;59.67;100896.16;5080405;28;45318;-53
2022/10/14 02:02:23;;;;;;;;;4.50;3.00;;;;;17.60;59.53;100888.06;5080293;27;45264;-49
2022/10/14 02:04:49;;;;;;;;;3.00;3.00;;;;;17.57;59.37;100882.88;5080063;27;46409;-54
2022/10/14 02:07:14;;;;;;;;;3.75;3.75;;;;;17.60;59.36;100882.75;5079876;27;45260;-52
2022/10/14 02:09:52;;;;;;;;;4.25;3.25;;;;;17.61;59.53;100889.78;5080174;27;45249;-54
2022/10/14 02:12:23;;;;;;;;;3.50;3.00;;;;;17.60;59.36;100885.41;5080548;27;45203;-51
2022/10/14 02:15:09;;;;;;;;;6.00;3.00;;;;;17.60;59.50;100883.63;5080179;27;45342;-50
2022/10/14 02:17:56;;;;;;;;;5.00;4.50;;;;;17.61;59.59;100881.81;5079799;27;45184;-50
2022/10/14 02:20:31;;;;;;;;;5.25;5.25;;;;;17.59;59.30;100876.56;5080356;27;45208;-52
2022/10/14 02:23:07;;;;;;;;;6.50;3.50;;;;;17.60;59.43;100870.31;5080012;27;45441;-50
2022/10/14 02:25:40;;;;;;;;;3.25;3.25;;;;;17.61;59.45;100868.53;5083593;27;46234;-50
2022/10/14 02:28:07;;;;;;;;;5.00;5.00;;;;;17.61;59.50;100864.09;5083590;28;45274;-49
2022/10/14 02:30:39;;;;;;;;;7.75;6.75;;;;;17.61;59.53;100860.56;5083691;27;45251;-48
2022/10/14 02:33:06;;;;;;;;;5.00;4.00;;;;;17.62;59.58;100859.63;5083750;27;45253;-52
2022/10/14 02:35:33;;;;;;;;;5.00;5.00;;;;;17.62;59.65;100867.59;5083344;27;46194;-49
2022/10/14 02:38:00;;;;;;;;;5.00;5.00;;;;;17.63;59.56;100864.88;5083153;28;45289;-49
2022/10/14 02:40:32;;;;;;;;;5.25;4.25;;;;;17.63;59.48;100859.56;5083578;27;45298;-48
2022/10/14 02:42:57;;;;;;;;;9.75;7.75;;;;;17.65;59.58;100862.19;5083387;27;45235;-52
2022/10/14 02:45:26;;;;;;;;;8.25;7.00;;;;;17.65;59.64;100856.88;5083102;27;46230;-50
2022/10/14 02:47:51;;;;;;;;;7.75;7.00;;;;;17.64;59.52;100848.00;5083314;27;45276;-49
2022/10/14 02:50:17;;;;;;;;;4.75;4.75;;;;;17.64;59.64;100855.97;5083349;27;45385;-51
2022/10/14 02:52:44;;;;;;;;;8.00;8.00;;;;;17.65;59.59;100851.53;5083089;28;45388;-53
2022/10/14 02:55:09;;;;;;;;;9.75;8.00;;;;;17.64;59.52;100853.31;5083009;28;46183;-50
2022/10/14 02:57:34;;;;;;;;;10.00;7.50;;;;;17.64;59.57;100845.34;5083234;27;45245;-49
2022/10/14 03:00:00;;;;;;;;;8.50;7.25;;;;;17.64;59.64;100845.34;5083076;27;46421;-51
2022/10/14 03:02:25;;;;;;;;;6.00;6.00;;;;;17.66;59.79;100847.94;5083233;27;45165;-50
2022/10/14 03:04:50;;;;;;;;;11.25;9.00;;;;;17.66;59.78;100854.13;5082983;27;45246;-49
2022/10/14 03:07:16;;;;;;;;;13.00;9.00;;;;;17.65;59.55;100852.41;5081427;28;45497;-50
2022/10/14 03:09:41;;;;;;;;;9.00;9.00;;;;;17.65;59.78;100851.53;5083051;27;45984;-51
2022/10/14 03:12:07;;;;;;;;;7.25;6.50;;;;;17.65;59.75;100851.53;5083225;27;45317;-53
2022/10/14 03:14:32;;;;;;;;;10.25;10.25;;;;;17.65;59.71;100856.88;5082790;27;46837;-52
2022/10/14 03:16:57;;;;;;;;;9.50;8.25;;;;;17.65;59.75;100857.72;5082876;27;45430;-50
2022/10/14 03:19:23;;;;;;;;;10.75;9.75;;;;;17.64;59.68;100853.31;5083019;27;45412;-52
2022/10/14 03:21:49;;;;;;;;;12.75;9.50;;;;;17.66;59.41;100855.91;5082582;27;45484;-54
2022/10/14 03:24:14;;;;;;;;;13.50;9.50;;;;;17.64;59.90;100853.31;5082354;27;46308;-54
2022/10/14 03:26:39;;;;;;;;;10.75;10.75;;;;;17.66;59.56;100850.59;5082994;27;45305;-54
2022/10/14 03:29:05;;;;;;;;;9.00;8.00;;;;;17.60;59.63;100833.13;5083029;27;45261;-52
2022/10/14 03:31:30;;;;;;;;;8.50;8.50;;;;;17.66;60.07;100842.63;5082818;27;45495;-49
2022/10/14 03:33:55;;;;;;;;;9.25;8.00;;;;;17.67;59.81;100853.22;5082610;27;45256;-49
2022/10/14 03:36:21;;;;;;;;;11.25;8.00;;;;;17.67;59.82;100850.56;5081794;27;45268;-50
2022/10/14 03:38:46;;;;;;;;;10.25;9.00;;;;;17.66;59.89;100845.28;5082598;27;45304;-53
2022/10/14 03:41:11;;;;;;;;;11.50;9.25;;;;;17.66;60.00;100845.28;5082756;27;45298;-52
2022/10/14 03:43:36;;;;;;;;;5.75;5.75;;;;;17.66;59.84;100843.50;5080808;28;52053;-49
2022/10/14 03:46:02;;;;;;;;;8.25;8.25;;;;;17.65;59.88;100846.22;5082622;27;48589;-50
2022/10/14 03:48:27;;;;;;;;;9.25;7.75;;;;;17.66;60.04;100847.94;5081227;28;45398;-52
2022/10/14 03:50:52;;;;;;;;;10.25;7.75;;;;;17.67;59.97;100836.38;5082649;27;45303;-50
2022/10/14 03:53:18;;;;;;;;;8.00;7.00;;;;;17.67;59.87;100836.38;5068329;27;45382;-48
2022/10/14 03:55:43;;;;;;;;;6.25;4.25;;;;;17.63;59.84;100822.34;5082494;27;45353;-47
2022/10/14 03:58:10;;;;;;;;;9.25;7.50;;;;;17.67;60.04;100833.72;5082270;27;45402;-51
2022/10/14 04:00:35;;;;;;;;;6.50;6.00;;;;;17.64;60.09;100824.09;5082413;27;45219;-54
2022/10/14 04:03:01;;;;;;;;;8.25;6.00;;;;;17.68;59.95;100835.47;5081975;27;45507;-50
2022/10/14 04:05:31;;;;;;;;;6.25;6.25;;;;;17.67;59.98;100839.03;5080962;28;45465;-48
2022/10/14 04:07:56;;;;;;;;;4.75;4.75;;;;;17.68;59.88;100846.09;5062849;28;45339;-50
2022/10/14 04:10:22;;;;;;;;;7.50;6.75;;;;;17.68;59.78;100840.78;5072650;28;45233;-52
2022/10/14 04:12:47;;;;;;;;;6.00;5.75;;;;;17.68;60.05;100846.09;5081916;27;45395;-50
2022/10/14 04:15:12;;;;;;;;;5.00;5.00;;;;;17.67;60.02;100847.91;5082259;27;45275;-50
2022/10/14 04:17:38;;;;;;;;;5.00;5.00;;;;;17.66;59.90;100850.59;5081776;27;45389;-51
2022/10/14 04:20:04;;;;;;;;;3.00;3.00;;;;;17.66;60.08;100845.28;5082073;28;45358;-52
2022/10/14 04:22:29;;;;;;;;;3.75;3.75;;;;;17.64;60.20;100836.53;5081761;27;45488;-50
2022/10/14 04:24:54;;;;;;;;;3.00;3.00;;;;;17.65;59.80;100843.56;5082013;27;45413;-50
2022/10/14 04:27:20;;;;;;;;;3.00;1.00;;;;;17.65;59.95;100840.91;5081807;27;45220;-51
2022/10/14 04:29:45;;;;;;;;;5.50;4.75;;;;;17.65;60.09;100840.91;5081984;27;45219;-52
2022/10/14 04:32:11;;;;;;;;;5.00;5.00;;;;;17.63;60.01;100834.78;5081615;27;45991;-51
2022/10/14 04:34:36;;;;;;;;;4.25;4.25;;;;;17.63;59.96;100830.31;5082004;27;45386;-51
2022/10/14 04:37:02;;;;;;;;;5.00;4.75;;;;;17.67;60.11;100833.72;5081574;27;45210;-53
2022/10/14 04:39:27;;;;;;;;;3.25;3.25;;;;;17.66;60.08;100829.34;5081758;27;45339;-51
2022/10/14 04:41:52;;;;;;;;;3.00;3.00;;;;;17.65;60.05;100831.13;5081485;27;45265;-51
2022/10/14 04:44:18;;;;;;;;;4.50;3.75;;;;;17.67;60.00;100831.94;5081662;27;45192;-52
2022/10/14 04:46:43;;;;;;;;;3.25;3.25;;;;;17.67;60.03;100839.91;5080776;27;45428;-51
2022/10/14 04:49:09;;;;;;;;;5.00;4.50;;;;;17.67;60.21;100841.69;5079838;28;45358;-53
2022/10/14 04:51:34;;;;;;;;;2.75;2.75;;;;;17.66;60.05;100839.97;5081115;28;45372;-51
2022/10/14 04:54:00;;;;;;;;;3.25;3.25;;;;;17.67;60.14;100847.00;5081374;28;45256;-50
2022/10/14 04:56:25;;;;;;;;;4.25;2.75;;;;;17.67;60.03;100842.56;5081521;27;45744;-52
2022/10/14 04:58:50;;;;;;;;;4.00;4.00;;;;;17.67;59.87;100831.06;5076698;28;45954;-48
2022/10/14 05:01:17;;;;;;;;;3.00;2.25;;;;;17.66;60.05;100813.38;5077193;28;45332;-52
2022/10/14 05:03:43;;;;;;;;;3.00;3.00;;;;;17.66;60.27;100802.75;5081368;27;45376;-48
2022/10/14 05:06:09;;;;;;;;;3.25;3.25;;;;;17.65;60.33;100807.22;5081086;27;45503;-50
2022/10/14 05:08:35;;;;;;;;;6.50;4.50;;;;;17.67;60.15;100812.47;5080934;27;45416;-49
2022/10/14 05:11:01;;;;;;;;;4.50;4.50;;;;;17.67;59.90;100821.31;5080896;27;46251;-48
2022/10/14 05:13:26;;;;;;;;;3.25;3.25;;;;;17.66;60.42;100810.72;5081219;27;45235;-53
2022/10/14 05:15:52;;;;;;;;;4.50;3.00;;;;;17.68;59.98;100817.75;5079703;28;45319;-49
2022/10/14 05:18:17;;;;;;;;;3.75;2.25;;;;;17.68;59.92;100819.50;5080932;27;45473;-50
2022/10/14 05:20:42;;;;;;;;;4.00;4.00;;;;;17.68;60.12;100820.41;5080837;27;45384;-51
2022/10/14 05:23:08;;;;;;;;;3.00;3.00;;;;;17.68;59.92;100828.38;5080841;27;45244;-53
2022/10/14 05:25:33;;;;;;;;;7.00;4.00;;;;;17.68;59.98;100823.06;5081150;27;45257;-52
2022/10/14 05:27:58;;;;;;;;;2.50;2.50;;;;;17.64;60.05;100818.78;5080887;27;45319;-47
2022/10/14 05:30:23;;;;;;;;;4.00;4.00;;;;;17.66;60.13;100816.03;5079389;28;46971;-49
2022/10/14 05:32:49;;;;;;;;;2.00;2.00;;;;;17.64;59.83;100810.81;5080814;27;45262;-49
2022/10/14 05:35:14;;;;;;;;;1.50;1.50;;;;;17.63;60.08;100810.88;5080612;28;45694;-50
2022/10/14 05:37:40;;;;;;;;;6.25;3.00;;;;;17.62;59.91;100801.19;5080513;27;45300;-50
2022/10/14 05:40:06;;;;;;;;;3.00;2.25;;;;;17.62;60.00;100803.84;5079365;28;47134;-51
2022/10/14 05:42:31;;;;;;;;;2.50;1.50;;;;;17.61;60.08;100808.28;5078174;27;45302;-50
2022/10/14 05:44:57;;;;;;;;;2.75;2.75;;;;;17.62;59.88;100801.19;5073885;28;45441;-52
2022/10/14 05:47:22;;;;;;;;;3.25;3.25;;;;;17.59;60.14;100799.50;5068985;28;45511;-51
2022/10/14 05:49:47;;;;;;;;;3.00;2.00;;;;;17.60;59.92;100809.22;5079906;28;46796;-50
2022/10/14 05:52:13;;;;;;;;;2.00;2.00;;;;;17.59;59.82;100806.63;5079605;27;45475;-47
2022/10/14 05:54:38;;;;;;;;;1.75;1.75;;;;;17.57;59.90;100811.13;5079561;27;45304;-48
2022/10/14 05:57:04;;;;;;;;;4.00;1.75;;;;;17.57;59.83;100803.16;5080078;28;45500;-52
2022/10/14 05:59:30;;;;;;;;;6.00;4.00;;;;;17.55;59.85;100814.72;5079572;27;46141;-50
2022/10/14 06:01:55;;;;;;;;;2.00;2.00;;;;;17.52;59.87;100809.53;5080004;27;45320;-52
2022/10/14 06:04:21;;;;;;;;;3.25;3.25;;;;;17.55;59.93;100819.19;5079866;27;45320;-50
2022/10/14 06:06:46;;;;;;;;;2.25;2.25;;;;;17.55;59.75;100828.00;5080257;27;45495;-50
2022/10/14 06:09:12;;;;;;;;;3.00;3.00;;;;;17.54;59.84;100828.94;5080169;27;45319;-58
2022/10/14 06:11:38;;;;;;;;;4.00;4.00;;;;;17.54;59.90;100828.06;5080218;27;45258;-52
2022/10/14 06:14:03;;;;;;;;;2.00;2.00;;;;;17.51;59.85;100829.06;5080313;27;45169;-50
2022/10/14 06:16:29;;;;;;;;;3.25;3.00;;;;;17.52;60.16;100828.16;5079779;27;45226;-52
2022/10/14 06:18:54;;;;;;;;;5.00;4.00;;;;;17.51;59.80;100815.78;5079758;27;45363;-54
2022/10/14 06:21:21;;;;;;;;;6.00;5.00;;;;;17.52;59.95;100820.16;5077306;28;45448;-53
2022/10/14 06:23:46;;;;;;;;;4.75;4.00;;;;;17.52;59.91;100814.84;5079857;27;45338;-51
2022/10/14 06:26:12;;;;;;;;;6.00;6.00;;;;;17.53;59.97;100821.91;5080160;27;45305;-54
2022/10/14 06:28:37;;;;;;;;;3.00;3.00;;;;;17.52;60.00;100812.19;5079447;27;55661;-53
2022/10/14 06:31:03;;;;;;;;;4.00;3.25;;;;;17.54;59.93;100809.47;5079730;27;45244;-52
2022/10/14 06:33:28;;;;;;;;;7.00;6.00;;;;;17.57;59.99;100821.75;5079950;28;45292;-53
2022/10/14 06:35:54;;;;;;;;;4.25;4.25;;;;;17.57;59.93;100827.06;5079220;27;45468;-51
2022/10/14 06:38:19;;;;;;;;;3.25;2.50;;;;;17.57;60.02;100827.06;5079533;27;46451;-49
2022/10/14 06:40:45;;;;;;;;;3.00;3.00;;;;;17.55;59.95;100822.69;5079805;27;45235;-47
2022/10/14 06:43:10;;;;;;;;;3.00;3.00;;;;;17.55;59.82;100822.69;5080114;27;45234;-49
2022/10/14 06:45:35;;;;;;;;;4.00;2.50;;;;;17.54;60.03;100822.75;5079524;27;47771;-50
2022/10/14 06:48:03;;;;;;;;;6.25;5.00;;;;;17.53;59.93;100816.59;5079289;27;46089;-51
2022/10/14 06:50:28;;;;;;;;;5.00;4.00;;;;;17.54;59.88;100820.94;5078644;28;45266;-51
2022/10/14 06:52:53;;;;;;;;;6.50;4.50;;;;;17.55;59.89;100828.00;5079426;27;45219;-51
2022/10/14 06:55:19;;;;;;;;;4.25;4.00;;;;;17.53;59.92;100834.31;5079605;27;45169;-52
2022/10/14 06:57:44;;;;;;;;;5.75;5.75;;;;;17.54;59.84;100836.03;5079505;27;46128;-49
2022/10/14 07:00:10;;;;;;;;;4.00;4.00;;;;;17.53;59.91;100835.19;5079470;27;45331;-50
2022/10/14 07:02:38;;;;;;;;;4.25;4.25;;;;;17.52;59.91;100836.13;5079488;27;45349;-49
2022/10/14 07:05:04;;;;;;;;;75.33;62.67;;;;;17.53;59.92;100836.97;5079561;27;45500;-49
2022/10/14 07:07:33;;;;;;;;;71.33;53.67;;;;;17.53;59.97;100834.31;5078788;27;45413;-51
2022/10/14 07:09:58;;;;;;;;;246.50;218.00;;;;;17.52;60.09;100832.56;5079045;27;55521;-51
2022/10/14 07:12:24;;;;;;;;;162.00;150.50;;;;;17.53;60.40;100831.66;5051116;28;45793;-48
2022/10/14 07:14:50;;;;;;;;;16.75;13.50;;;;;17.52;60.17;100851.16;5082943;27;45264;-50
2022/10/14 07:17:15;;;;;;;;;13.25;13.25;;;;;17.52;60.05;100844.09;5082512;27;45296;-51
2022/10/14 07:19:40;;;;;;;;;8.50;6.00;;;;;17.52;59.98;100852.06;5083047;27;45346;-52
2022/10/14 07:22:06;;;;;;;;;14.75;13.00;;;;;17.52;60.14;100852.06;5082548;28;47019;-52
2022/10/14 07:24:31;;;;;;;;;9.75;9.75;;;;;17.52;60.18;100862.69;5082787;27;45306;-51
2022/10/14 07:26:57;;;;;;;;;6.50;6.00;;;;;17.48;60.16;100854.88;5082585;27;46972;-53
2022/10/14 07:29:22;;;;;;;;;24.75;20.00;;;;;17.50;60.36;100861.88;5082596;27;45570;-51
2022/10/14 07:31:48;;;;;;;;;7.75;7.25;;;;;17.48;60.44;100866.41;5082710;27;45263;-52
2022/10/14 07:34:13;;;;;;;;;6.50;4.75;;;;;17.52;60.43;100862.69;5083054;27;45398;-48
2022/10/14 07:36:39;;;;;;;;;2.25;1.75;;;;;17.52;60.38;100861.78;5082331;27;46091;-51
2022/10/14 07:39:04;;;;;;;;;6.50;6.00;;;;;17.47;60.35;100867.31;5082571;27;45335;-49
2022/10/14 07:41:31;;;;;;;;;3.00;3.00;;;;;17.49;60.44;100869.91;5082614;27;45169;-50
2022/10/14 07:44:04;;;;;;;;;1.00;0.25;;;;;17.48;60.33;100871.72;5075855;27;45232;-50
2022/10/14 07:46:31;;;;;;;;;4.00;3.00;;;;;17.49;60.21;100875.22;5082116;27;45235;-49
2022/10/14 07:49:03;;;;;;;;;2.25;1.00;;;;;17.48;60.41;100878.78;5077727;28;45541;-48
2022/10/14 07:51:29;;;;;;;;;2.50;2.25;;;;;17.48;60.08;100882.34;5080116;28;45434;-49
2022/10/14 07:53:57;;;;;;;;;6.00;3.00;;;;;17.46;60.24;100888.59;5082243;27;45371;-48
2022/10/14 07:56:23;;;;;;;;;2.00;2.00;;;;;17.47;60.16;100887.69;5082204;27;45173;-48
2022/10/14 07:58:48;;;;;;;;;6.00;5.25;;;;;17.47;60.34;100895.66;5082050;27;45240;-48
2022/10/14 08:01:14;;;;;;;;;3.00;2.00;;;;;17.36;60.20;100881.03;5082241;27;45389;-47
2022/10/14 08:03:44;;;;;;;;;2.50;2.00;;;;;17.43;60.25;100892.25;5082241;27;45568;-48
2022/10/14 08:06:10;;;;;;;;;2.00;1.50;;;;;17.42;60.21;100893.22;5081645;28;46232;-49
2022/10/14 08:08:36;;;;;;;;;2.75;2.75;;;;;17.41;60.09;100907.41;5081905;27;45227;-48
2022/10/14 08:11:05;;;;;;;;;3.50;2.50;;;;;17.41;60.16;100909.19;5082029;27;45240;-48
2022/10/14 08:13:31;;;;;;;;;1.50;1.50;;;;;17.38;60.26;100907.53;5081955;27;45318;-52
2022/10/14 08:15:56;;;;;;;;;4.00;1.00;;;;;17.38;60.15;100911.06;5081660;28;46176;-47
2022/10/14 08:18:22;;;;;;;;;3.25;2.25;;;;;17.36;60.08;100914.72;5081909;27;45295;-48
2022/10/14 08:20:47;;;;;;;;;1.75;1.25;;;;;17.34;60.08;100913.88;5081784;27;45429;-50
2022/10/14 08:23:12;;;;;;;;;2.25;1.00;;;;;17.32;60.23;100915.72;5081576;28;45428;-52
2022/10/14 08:25:38;;;;;;;;;1.00;1.00;;;;;17.30;60.19;100909.63;5081757;27;46010;-50
2022/10/14 08:28:04;;;;;;;;;3.00;2.00;;;;;17.31;60.07;100916.69;5081849;27;45447;-50
2022/10/14 08:30:29;;;;;;;;;1.50;1.25;;;;;17.29;59.84;100915.88;5081777;27;45388;-47
2022/10/14 08:32:55;;;;;;;;;3.50;3.00;;;;;17.30;60.16;100920.25;5081949;27;45221;-51
2022/10/14 08:35:20;;;;;;;;;1.00;1.00;;;;;17.28;60.06;100912.34;5081669;27;46175;-52
2022/10/14 08:37:55;;;;;;;;;9.50;7.00;;;;;17.26;59.89;100918.63;5081288;27;45326;-51
2022/10/14 08:40:20;;;;;;;;;1.75;1.75;;;;;17.25;60.14;100917.78;5081910;27;45212;-47
2022/10/14 08:43:34;;;;;;;;;2.00;2.00;;;;;17.24;59.90;100912.53;5081418;27;45263;-48
2022/10/14 08:46:10;;;;;;;;;3.00;1.25;;;;;17.22;60.19;100908.13;5081728;27;46389;-47
2022/10/14 08:48:37;;;;;;;;;2.00;2.00;;;;;17.23;59.83;100906.34;5081342;27;45295;-50
2022/10/14 08:51:08;;;;;;;;;2.00;2.00;;;;;17.24;59.91;100917.84;5081330;28;45161;-49
2022/10/14 08:53:45;;;;;;;;;2.00;2.00;;;;;17.24;60.13;100910.72;5081361;27;45287;-49
2022/10/14 08:56:12;;;;;;;;;3.25;3.25;;;;;17.22;60.07;100907.28;5081195;27;46148;-48
2022/10/14 08:58:42;;;;;;;;;4.50;3.00;;;;;17.23;60.10;100909.00;5081148;27;45472;-52
2022/10/14 09:01:30;;;;;;;;;7.00;6.75;;;;;17.24;59.96;100912.53;5081359;27;45302;-48
2022/10/14 09:03:58;;;;;;;;;6.50;6.00;;;;;17.21;59.94;100902.91;5081147;27;45294;-52
2022/10/14 09:06:27;;;;;;;;;6.75;5.75;;;;;17.21;60.04;100906.41;5079901;28;46534;-53
2022/10/14 09:08:58;;;;;;;;;3.25;2.75;;;;;17.21;59.96;100902.91;5080807;28;45365;-50
2022/10/14 09:11:27;;;;;;;;;5.00;4.00;;;;;17.20;60.31;100894.03;5081547;27;45279;-49
2022/10/14 09:13:59;;;;;;;;;4.25;2.25;;;;;17.22;60.09;100905.47;5080956;27;45283;-49
2022/10/14 09:16:28;;;;;;;;;5.00;3.25;;;;;17.23;59.96;100903.69;5079615;28;47185;-50
2022/10/14 09:18:56;;;;;;;;;3.25;2.00;;;;;17.22;60.04;100900.16;5080742;28;45286;-51
2022/10/14 09:21:42;;;;;;;;;2.50;2.00;;;;;17.21;60.20;100898.44;5081035;28;45381;-50
2022/10/14 09:24:21;;;;;;;;;4.00;3.50;;;;;17.22;60.28;100889.56;5080773;27;45234;-52
2022/10/14 09:26:51;;;;;;;;;4.50;3.25;;;;;17.24;59.99;100893.94;5080719;27;46193;-52
2022/10/14 09:29:27;;;;;;;;;5.75;3.75;;;;;17.24;59.98;100886.81;5080846;27;45413;-51
2022/10/14 09:31:57;;;;;;;;;7.00;6.50;;;;;17.25;60.08;100893.88;5080837;28;45153;-53
2022/10/14 09:34:33;;;;;;;;;5.25;4.25;;;;;17.27;60.58;100884.06;5080159;27;45487;-52
2022/10/14 09:37:25;;;;;;;;;4.25;4.25;;;;;17.28;60.05;100883.16;5080255;27;46139;-50
2022/10/14 09:39:53;;;;;;;;;6.00;6.00;;;;;17.28;60.03;100887.56;5080605;27;45491;-50
2022/10/14 09:42:24;;;;;;;;;4.50;3.50;;;;;17.29;60.05;100890.16;5080936;27;45314;-52
2022/10/14 09:45:23;;;;;;;;;4.75;4.75;;;;;17.29;60.39;100890.16;5079139;28;45585;-50
2022/10/14 09:48:15;;;;;;;;;10.50;9.25;;;;;17.30;60.18;100883.94;5055651;28;47271;-50
2022/10/14 09:50:47;;;;;;;;;9.50;7.00;;;;;17.32;59.91;100889.16;5071668;28;45504;-52
2022/10/14 09:53:17;;;;;;;;;2.50;2.00;;;;;17.31;60.17;100883.00;5080516;27;45384;-50
2022/10/14 09:55:54;;;;;;;;;4.50;4.00;;;;;17.33;60.08;100889.13;5080532;27;45350;-50
2022/10/14 09:58:37;;;;;;;;;6.50;5.75;;;;;17.32;60.13;100890.06;5096375;27;47023;-51
2022/10/14 10:01:03;;;;;;;;;5.00;5.00;;;;;17.34;60.23;100879.38;5092686;27;45299;-52
2022/10/14 10:03:34;;;;;;;;;5.00;3.75;;;;;17.27;60.11;100875.22;5080622;27;45328;-48
2022/10/14 10:06:22;;;;;;;;;5.00;5.00;;;;;17.36;60.08;100888.16;5080045;28;45164;-50
2022/10/14 10:08:53;;;;;;;;;3.00;2.75;;;;;17.37;60.11;100879.22;5079901;28;46347;-51
2022/10/14 10:11:36;;;;;;;;;7.25;5.75;;;;;17.38;60.24;100871.22;5080280;27;45184;-50
2022/10/14 10:14:24;;;;;;;;;5.75;5.75;;;;;17.38;59.95;100881.84;5080210;27;45285;-52
2022/10/14 10:17:14;;;;;;;;;5.75;5.00;;;;;17.42;60.12;100881.69;5079991;27;45457;-53
2022/10/14 10:19:45;;;;;;;;;6.75;6.00;;;;;17.43;60.29;100876.31;5069613;28;45447;-49
2022/10/14 10:22:21;;;;;;;;;4.25;4.25;;;;;17.46;60.13;100878.88;5079755;27;45386;-47
2022/10/14 10:24:47;;;;;;;;;8.00;6.25;;;;;17.48;60.06;100874.38;5080306;27;45401;-52
2022/10/14 10:27:51;;;;;;;;;7.75;5.50;;;;;17.52;60.06;100880.41;5079798;27;45306;-49
2022/10/14 10:30:16;;;;;;;;;4.25;4.00;;;;;17.54;60.36;100874.09;5080037;27;47157;-50
2022/10/14 10:32:57;;;;;;;;;6.00;6.00;;;;;17.53;60.17;100869.72;5079969;28;45247;-51
2022/10/14 10:35:46;;;;;;;;;9.00;7.25;;;;;17.54;60.43;100863.47;5080160;27;45133;-52
2022/10/14 10:38:29;;;;;;;;;5.50;4.00;;;;;17.60;60.02;100864.16;5079650;28;45401;-52
2022/10/14 10:41:23;;;;;;;;;9.00;8.00;;;;;17.62;60.08;100851.66;5079747;27;45513;-49
2022/10/14 10:44:04;;;;;;;;;4.50;4.50;;;;;17.61;60.21;100853.47;5079832;27;45283;-52
2022/10/14 10:46:59;;;;;;;;;7.00;5.75;;;;;17.62;60.10;100856.97;5083427;27;45357;-53
2022/10/14 10:49:43;;;;;;;;;5.50;4.75;;;;;17.67;60.27;100847.91;5081724;28;45476;-50
2022/10/14 10:52:24;;;;;;;;;3.00;3.00;;;;;17.69;60.36;100858.44;5083288;27;45470;-52
2022/10/14 10:55:27;;;;;;;;;2.00;2.00;;;;;17.72;60.16;100845.03;5081855;28;45473;-50
2022/10/14 10:58:00;;;;;;;;;4.50;4.50;;;;;17.74;59.98;100829.88;5061178;28;45379;-51
2022/10/14 11:00:31;;;;;;;;;9.75;8.25;;;;;17.76;60.23;100832.47;5080092;28;45251;-52
2022/10/14 11:03:09;;;;;;;;;6.75;5.50;;;;;17.77;60.31;100819.09;5081587;28;45332;-52
2022/10/14 11:05:40;;;;;;;;;12.00;7.50;;;;;17.80;60.36;100816.34;5082814;28;45323;-48
2022/10/14 11:14:47;;;;;;;;;7.25;5.00;;;;;17.85;60.21;100811.69;5082965;28;45417;-52
2022/10/14 11:17:12;;;;;;;;;4.00;4.00;;;;;17.87;60.70;100811.59;5082444;27;45264;-51
2022/10/14 11:20:21;;;;;;;;;4.00;2.50;;;;;17.89;60.30;100808.91;5083214;27;45294;-51
2022/10/14 11:23:05;;;;;;;;;3.00;2.00;;;;;17.90;59.90;100807.94;5065921;28;45385;-50
2022/10/14 11:25:52;;;;;;;;;4.50;4.00;;;;;17.87;60.24;100800.97;5082533;28;46140;-51
2022/10/14 11:28:41;;;;;;;;;6.00;6.00;;;;;17.87;60.10;100793.00;5082579;27;45298;-51
2022/10/14 11:31:31;;;;;;;;;5.00;4.00;;;;;17.86;60.05;100793.91;5083105;27;45363;-51
2022/10/14 11:34:17;;;;;;;;;3.50;3.00;;;;;17.85;60.21;100782.44;5082900;27;45200;-53
2022/10/14 11:36:57;;;;;;;;;2.75;1.50;;;;;17.83;60.22;100781.63;5082317;27;46258;-48
2022/10/14 11:39:28;;;;;;;;;1.50;0.50;;;;;17.83;60.12;100784.28;5082475;27;45342;-51
2022/10/14 11:42:12;;;;;;;;;0.50;0.50;;;;;17.81;60.10;100780.84;5082827;27;45258;-54
2022/10/14 11:44:40;;;;;;;;;0.00;0.00;;;;;17.81;59.81;100777.31;5082438;27;45297;-55